Del Rio International Airport Del Rio US
ICAO: KDRT
IATA: DRT
Category: Medium
Scheduled Services: No

Elevation: 1002 ft
TransAlt. 18000 ft.

Airport Communications:
APP:119.6
ASOS:118.525
CLNC DEL:120.5
DEP:119.6
SAN ANGELO RDO:122.3
CTAF/UNICOM:122.8

KDRT Zoom In..

Runways:

(A) RW 13 length 6300 ft width 100 ft
ILS 111.90 / hdg 132

(B) RW 31 length 6300 ft width 100 ft
---- / hdg 312

Location; KDRT
Day. 15 / Time. 21.53 Zulu
* Altimeter: 29.88
* Temperature: 38° c. 100.4°f.
* Wind from: 140° Speed 12 kn with Gusts up to 20 kn.
Dewpoint: 19° c.
Visibility: 10 Statute Miles.
Clouds: Broken 8000 ft.
Clouds: Broken 9000 ft.

KDRT 152153Z AUTO 14012G20KT 10SM BKN080 BKN090 38/19 A2988 RMK AO2 SLP099 T03780189


Wind From 140°
Speed 12 kn.

 
 
jpsmedia.com for Web Design worldairports.se 2018   terms of use